createdAt,value
2019-02-04T00:00:30.333Z,1029.2
2019-02-04T00:01:30.314Z,1029.16
2019-02-04T00:02:30.871Z,1029.18
2019-02-04T00:03:30.375Z,1029.21
2019-02-04T00:04:30.903Z,1029.22
2019-02-04T00:05:30.412Z,1029.24
2019-02-04T00:06:30.303Z,1029.25
2019-02-04T00:07:30.348Z,1029.25
2019-02-04T00:08:30.300Z,1029.27
2019-02-04T00:09:30.865Z,1029.26
2019-02-04T00:10:30.437Z,1029.27
2019-02-04T00:11:30.293Z,1029.3
2019-02-04T00:12:30.532Z,1029.31
2019-02-04T00:13:30.272Z,1029.28
2019-02-04T00:14:30.294Z,1029.27
2019-02-04T00:15:30.285Z,1029.31
2019-02-04T00:16:41.288Z,1029.3
2019-02-04T00:17:30.318Z,1029.32
2019-02-04T00:18:30.703Z,1029.35
2019-02-04T00:19:30.338Z,1029.34
2019-02-04T00:20:30.445Z,1029.31
2019-02-04T00:21:30.729Z,1029.33
2019-02-04T00:22:30.294Z,1029.31
2019-02-04T00:23:30.361Z,1029.34
2019-02-04T00:24:31.289Z,1029.32
2019-02-04T00:25:32.051Z,1029.32
2019-02-04T00:26:30.329Z,1029.32
2019-02-04T00:27:30.463Z,1029.31
2019-02-04T00:28:30.276Z,1029.27
2019-02-04T00:29:30.387Z,1029.26
2019-02-04T00:30:30.361Z,1029.26
2019-02-04T00:31:30.329Z,1029.23
2019-02-04T00:32:30.430Z,1029.25
2019-02-04T00:33:30.357Z,1029.22
2019-02-04T00:34:30.539Z,1029.22
2019-02-04T00:35:30.710Z,1029.21
2019-02-04T00:36:30.302Z,1029.23
2019-02-04T00:37:30.322Z,1029.23
2019-02-04T00:38:30.318Z,1029.23
2019-02-04T00:39:30.756Z,1029.25
2019-02-04T00:40:32.039Z,1029.25
2019-02-04T00:41:30.840Z,1029.29
2019-02-04T00:42:30.345Z,1029.28
2019-02-04T00:43:30.219Z,1029.28
2019-02-04T00:44:30.300Z,1029.28
2019-02-04T00:45:30.475Z,1029.29
2019-02-04T00:46:30.784Z,1029.28
2019-02-04T00:47:30.305Z,1029.3
2019-02-04T00:48:30.350Z,1029.29
2019-02-04T00:49:30.701Z,1029.3
2019-02-04T00:50:30.340Z,1029.35
2019-02-04T00:51:30.208Z,1029.35
2019-02-04T00:52:30.296Z,1029.34
2019-02-04T00:53:30.195Z,1029.4
2019-02-04T00:54:32.031Z,1029.38
2019-02-04T00:55:30.666Z,1029.38
2019-02-04T00:56:30.343Z,1029.42
2019-02-04T00:57:30.654Z,1029.42
2019-02-04T00:58:30.252Z,1029.46
2019-02-04T00:59:30.210Z,1029.47
2019-02-04T01:00:32.004Z,1029.5
2019-02-04T01:01:30.392Z,1029.48
2019-02-04T01:02:30.204Z,1029.49
2019-02-04T01:03:30.433Z,1029.5
2019-02-04T01:04:30.288Z,1029.51
2019-02-04T01:05:31.120Z,1029.48
2019-02-04T01:06:30.729Z,1029.48
2019-02-04T01:07:30.221Z,1029.5
2019-02-04T01:08:30.314Z,1029.49
2019-02-04T01:09:30.342Z,1029.48
2019-02-04T01:10:30.349Z,1029.47
2019-02-04T01:11:30.556Z,1029.44
2019-02-04T01:12:30.243Z,1029.46
2019-02-04T01:13:30.336Z,1029.45
2019-02-04T01:14:30.259Z,1029.45
2019-02-04T01:15:30.248Z,1029.44
2019-02-04T01:16:30.994Z,1029.49
2019-02-04T01:17:30.364Z,1029.5
2019-02-04T01:18:30.825Z,1029.51
2019-02-04T01:19:30.206Z,1029.55
2019-02-04T01:20:30.180Z,1029.59
2019-02-04T01:21:30.507Z,1029.61
2019-02-04T01:22:30.240Z,1029.66
2019-02-04T01:23:30.253Z,1029.65
2019-02-04T01:24:30.327Z,1029.68
2019-02-04T01:25:30.341Z,1029.7
2019-02-04T01:26:30.357Z,1029.69
2019-02-04T01:27:30.165Z,1029.74
2019-02-04T01:28:30.180Z,1029.75
2019-02-04T01:29:30.292Z,1029.75
2019-02-04T01:30:30.372Z,1029.76
2019-02-04T01:31:30.704Z,1029.73
2019-02-04T01:32:30.303Z,1029.71
2019-02-04T01:33:30.520Z,1029.71
2019-02-04T01:34:30.425Z,1029.73
2019-02-04T01:35:30.242Z,1029.74
2019-02-04T01:36:30.118Z,1029.7
2019-02-04T01:37:30.133Z,1029.74
2019-02-04T01:38:30.143Z,1029.73
2019-02-04T01:39:30.144Z,1029.75
2019-02-04T01:40:30.097Z,1029.77
2019-02-04T01:41:33.449Z,1029.76
2019-02-04T01:42:30.164Z,1029.71
2019-02-04T01:43:30.175Z,1029.72
2019-02-04T01:44:30.129Z,1029.75
2019-02-04T01:45:30.195Z,1029.72
2019-02-04T01:46:30.280Z,1029.72
2019-02-04T01:47:30.823Z,1029.74
2019-02-04T01:48:30.416Z,1029.8
2019-02-04T01:49:30.406Z,1029.8
2019-02-04T01:50:30.112Z,1029.83
2019-02-04T01:51:30.272Z,1029.86
2019-02-04T01:52:30.727Z,1029.89
2019-02-04T01:53:30.193Z,1029.93
2019-02-04T01:54:30.171Z,1029.94
2019-02-04T01:55:30.142Z,1029.91
2019-02-04T01:56:30.455Z,1029.88
2019-02-04T01:57:30.126Z,1029.86
2019-02-04T01:58:30.213Z,1029.87
2019-02-04T01:59:30.160Z,1029.89
2019-02-04T02:00:30.352Z,1029.87
2019-02-04T02:01:30.500Z,1029.89
2019-02-04T02:02:30.259Z,1029.94
2019-02-04T02:03:30.129Z,1029.93
2019-02-04T02:04:31.247Z,1029.95
2019-02-04T02:05:30.420Z,1029.99
2019-02-04T02:06:30.104Z,1030.02
2019-02-04T02:07:30.187Z,1030.04
2019-02-04T02:08:30.390Z,1030.02
2019-02-04T02:09:30.456Z,1030
2019-02-04T02:10:30.197Z,1030.04
2019-02-04T02:11:30.388Z,1030.06
2019-02-04T02:12:30.188Z,1030.06
2019-02-04T02:13:30.265Z,1030.04
2019-02-04T02:14:31.004Z,1030.04
2019-02-04T02:15:30.186Z,1030.05
2019-02-04T02:16:31.062Z,1030.05
2019-02-04T02:17:30.217Z,1030.06
2019-02-04T02:18:30.228Z,1030.08
2019-02-04T02:19:30.418Z,1030.11
2019-02-04T02:20:30.122Z,1030.08
2019-02-04T02:21:30.333Z,1030.08
2019-02-04T02:22:30.073Z,1030.09
2019-02-04T02:23:30.346Z,1030.05
2019-02-04T02:24:30.460Z,1030.04
2019-02-04T02:25:30.239Z,1030.06
2019-02-04T02:26:30.178Z,1030.03
2019-02-04T02:27:30.369Z,1029.99
2019-02-04T02:28:30.894Z,1030.01
2019-02-04T02:29:31.070Z,1029.98
2019-02-04T02:30:30.305Z,1030.02
2019-02-04T02:31:30.075Z,1030.01
2019-02-04T02:32:30.704Z,1030.02
2019-02-04T02:33:30.049Z,1030.06
2019-02-04T02:34:30.174Z,1030.09
2019-02-04T02:35:30.211Z,1030.09
2019-02-04T02:36:30.073Z,1030.13
2019-02-04T02:37:30.115Z,1030.15
2019-02-04T02:38:30.345Z,1030.18
2019-02-04T02:39:30.114Z,1030.19
2019-02-04T02:40:30.761Z,1030.18
2019-02-04T02:41:30.286Z,1030.2
2019-02-04T02:42:30.104Z,1030.18
2019-02-04T02:43:30.052Z,1030.21
2019-02-04T02:44:30.389Z,1030.2
2019-02-04T02:45:30.035Z,1030.22
2019-02-04T02:46:30.062Z,1030.22
2019-02-04T02:47:38.800Z,1030.23
2019-02-04T02:48:30.326Z,1030.21
2019-02-04T02:49:30.097Z,1030.17
2019-02-04T02:50:29.996Z,1030.22
2019-02-04T02:51:30.890Z,1030.19
2019-02-04T02:52:30.105Z,1030.17
2019-02-04T02:53:30.348Z,1030.2
2019-02-04T02:54:30.201Z,1030.14
2019-02-04T02:55:30.622Z,1030.16
2019-02-04T02:56:30.011Z,1030.18
2019-02-04T02:57:30.063Z,1030.15
2019-02-04T02:58:30.406Z,1030.17
2019-02-04T02:59:30.116Z,1030.18
2019-02-04T03:00:30.028Z,1030.18
2019-02-04T03:01:30.193Z,1030.21
2019-02-04T03:02:30.007Z,1030.19
2019-02-04T03:03:30.402Z,1030.22
2019-02-04T03:04:30.010Z,1030.19
2019-02-04T03:05:30.012Z,1030.2
2019-02-04T03:06:31.872Z,1030.21
2019-02-04T03:07:29.985Z,1030.22
2019-02-04T03:08:30.143Z,1030.22
2019-02-04T03:09:30.242Z,1030.23
2019-02-04T03:10:30.004Z,1030.25
2019-02-04T03:11:30.586Z,1030.26
2019-02-04T03:12:30.379Z,1030.26
2019-02-04T03:13:30.165Z,1030.3
2019-02-04T03:14:30.115Z,1030.3
2019-02-04T03:15:30.060Z,1030.31
2019-02-04T03:16:30.044Z,1030.27
2019-02-04T03:17:30.105Z,1030.31
2019-02-04T03:18:30.132Z,1030.33
2019-02-04T03:19:30.660Z,1030.31
2019-02-04T03:20:30.015Z,1030.34
2019-02-04T03:21:30.024Z,1030.34
2019-02-04T03:22:30.026Z,1030.39
2019-02-04T03:23:30.258Z,1030.41
2019-02-04T03:24:30.265Z,1030.4
2019-02-04T03:25:30.000Z,1030.4
2019-02-04T03:26:30.006Z,1030.42
2019-02-04T03:27:30.369Z,1030.4
2019-02-04T03:28:30.045Z,1030.38
2019-02-04T03:29:30.000Z,1030.4
2019-02-04T03:30:30.070Z,1030.4
2019-02-04T03:31:29.957Z,1030.42
2019-02-04T03:32:30.064Z,1030.41
2019-02-04T03:33:30.026Z,1030.41
2019-02-04T03:34:30.323Z,1030.42
2019-02-04T03:35:30.626Z,1030.38
2019-02-04T03:36:30.232Z,1030.43
2019-02-04T03:37:30.006Z,1030.44
2019-02-04T03:38:30.359Z,1030.45
2019-02-04T03:39:30.234Z,1030.39
2019-02-04T03:40:30.262Z,1030.45
2019-02-04T03:41:30.003Z,1030.44
2019-02-04T03:42:30.126Z,1030.43
2019-02-04T03:43:30.377Z,1030.47
2019-02-04T03:44:30.406Z,1030.46
2019-02-04T03:45:29.982Z,1030.52
2019-02-04T03:46:29.977Z,1030.51
2019-02-04T03:47:31.701Z,1030.5
2019-02-04T03:48:29.978Z,1030.49
2019-02-04T03:49:30.239Z,1030.5
2019-02-04T03:50:29.990Z,1030.52
2019-02-04T03:51:30.752Z,1030.49
2019-02-04T03:52:30.558Z,1030.52
2019-02-04T03:53:30.372Z,1030.53
2019-02-04T03:54:29.906Z,1030.54
2019-02-04T03:55:30.207Z,1030.56
2019-02-04T03:56:30.286Z,1030.56
2019-02-04T03:57:30.193Z,1030.56
2019-02-04T03:58:30.535Z,1030.59
2019-02-04T03:59:30.480Z,1030.61
2019-02-04T04:00:30.325Z,1030.62
2019-02-04T04:01:30.024Z,1030.61
2019-02-04T04:02:29.984Z,1030.57
2019-02-04T04:03:30.248Z,1030.6
2019-02-04T04:04:31.704Z,1030.58
2019-02-04T04:05:29.889Z,1030.59
2019-02-04T04:06:30.977Z,1030.63
2019-02-04T04:07:30.350Z,1030.67
2019-02-04T04:08:29.985Z,1030.7
2019-02-04T04:09:29.933Z,1030.66
2019-02-04T04:10:30.206Z,1030.69
2019-02-04T04:11:30.182Z,1030.73
2019-02-04T04:12:30.495Z,1030.7
2019-02-04T04:13:30.645Z,1030.68
2019-02-04T04:14:31.344Z,1030.68
2019-02-04T04:15:30.552Z,1030.67
2019-02-04T04:16:29.933Z,1030.67
2019-02-04T04:17:30.368Z,1030.67
2019-02-04T04:18:30.109Z,1030.62
2019-02-04T04:19:31.719Z,1030.64
2019-02-04T04:20:30.011Z,1030.62
2019-02-04T04:21:30.578Z,1030.61
2019-02-04T04:22:30.049Z,1030.58
2019-02-04T04:23:29.951Z,1030.6
2019-02-04T04:24:30.390Z,1030.57
2019-02-04T04:25:30.112Z,1030.61
2019-02-04T04:26:30.029Z,1030.64
2019-02-04T04:27:30.190Z,1030.66
2019-02-04T04:28:30.402Z,1030.67
2019-02-04T04:29:30.003Z,1030.65
2019-02-04T04:30:30.690Z,1030.68
2019-02-04T04:31:29.984Z,1030.7
2019-02-04T04:32:30.324Z,1030.67
2019-02-04T04:33:30.127Z,1030.68
2019-02-04T04:34:30.046Z,1030.69
2019-02-04T04:35:29.970Z,1030.63
2019-02-04T04:36:29.850Z,1030.61
2019-02-04T04:37:30.161Z,1030.59
2019-02-04T04:38:30.468Z,1030.6
2019-02-04T04:39:30.297Z,1030.56
2019-02-04T04:40:30.181Z,1030.58
2019-02-04T04:41:29.872Z,1030.55
2019-02-04T04:42:30.195Z,1030.55
2019-02-04T04:43:29.991Z,1030.54
2019-02-04T04:44:29.977Z,1030.52
2019-02-04T04:45:30.215Z,1030.53
2019-02-04T04:46:30.210Z,1030.55
2019-02-04T04:47:30.127Z,1030.56
2019-02-04T04:48:31.043Z,1030.53
2019-02-04T04:49:29.880Z,1030.56
2019-02-04T04:50:30.025Z,1030.54
2019-02-04T04:51:30.055Z,1030.56
2019-02-04T04:52:29.998Z,1030.56
2019-02-04T04:53:29.808Z,1030.56
2019-02-04T04:54:30.985Z,1030.53
2019-02-04T04:55:29.871Z,1030.54
2019-02-04T04:56:29.840Z,1030.55
2019-02-04T04:57:30.105Z,1030.53
2019-02-04T04:58:29.993Z,1030.61
2019-02-04T04:59:29.996Z,1030.58
2019-02-04T05:00:30.791Z,1030.6
2019-02-04T05:01:29.846Z,1030.59
2019-02-04T05:02:30.833Z,1030.6
2019-02-04T05:03:30.146Z,1030.65
2019-02-04T05:04:30.657Z,1030.61
2019-02-04T05:05:29.963Z,1030.66
2019-02-04T05:06:29.808Z,1030.66
2019-02-04T05:07:29.812Z,1030.63
2019-02-04T05:08:29.961Z,1030.63
2019-02-04T05:09:30.173Z,1030.66
2019-02-04T05:10:29.841Z,1030.68
2019-02-04T05:11:30.188Z,1030.72
2019-02-04T05:12:30.085Z,1030.66
2019-02-04T05:13:31.618Z,1030.69
2019-02-04T05:14:30.515Z,1030.71
2019-02-04T05:15:29.855Z,1030.74
2019-02-04T05:16:30.115Z,1030.79
2019-02-04T05:17:30.129Z,1030.76
2019-02-04T05:18:38.518Z,1030.74
2019-02-04T05:19:29.794Z,1030.82
2019-02-04T05:20:30.149Z,1030.77
2019-02-04T05:21:29.889Z,1030.81
2019-02-04T05:22:29.990Z,1030.84
2019-02-04T05:23:29.959Z,1030.88
2019-02-04T05:24:29.842Z,1030.87
2019-02-04T05:25:31.612Z,1030.96
2019-02-04T05:26:32.851Z,1030.96
2019-02-04T05:27:30.627Z,1030.95
2019-02-04T05:28:30.411Z,1030.97
2019-02-04T05:29:30.112Z,1030.99
2019-02-04T05:30:29.866Z,1031.02
2019-02-04T05:31:30.022Z,1031.03
2019-02-04T05:32:30.031Z,1031.03
2019-02-04T05:33:31.583Z,1031.02
2019-02-04T05:34:29.767Z,1031.01
2019-02-04T05:35:29.836Z,1031.01
2019-02-04T05:36:30.258Z,1031.03
2019-02-04T05:37:29.882Z,1031.01
2019-02-04T05:38:29.937Z,1030.98
2019-02-04T05:39:29.786Z,1030.96
2019-02-04T05:40:29.897Z,1030.96
2019-02-04T05:41:30.316Z,1030.95
2019-02-04T05:42:29.761Z,1030.99
2019-02-04T05:43:29.757Z,1030.99
2019-02-04T05:44:29.921Z,1031.02
2019-02-04T05:45:30.103Z,1030.96
2019-02-04T05:46:30.345Z,1030.97
2019-02-04T05:47:29.718Z,1030.9
2019-02-04T05:48:29.869Z,1030.93
2019-02-04T05:49:30.236Z,1030.93
2019-02-04T05:50:29.908Z,1030.98
2019-02-04T05:51:29.765Z,1030.98
2019-02-04T05:52:29.971Z,1030.96
2019-02-04T05:53:29.741Z,1030.96
2019-02-04T05:54:30.079Z,1030.96
2019-02-04T05:55:30.897Z,1030.99
2019-02-04T05:56:29.817Z,1030.99
2019-02-04T05:57:30.803Z,1030.97
2019-02-04T05:58:29.794Z,1031
2019-02-04T05:59:30.117Z,1031.01
2019-02-04T06:00:30.117Z,1031.03
2019-02-04T06:01:29.809Z,1031
2019-02-04T06:02:30.131Z,1031.02
2019-02-04T06:03:29.963Z,1031.02
2019-02-04T06:04:29.740Z,1030.99
2019-02-04T06:05:30.243Z,1030.96
2019-02-04T06:06:29.880Z,1030.95
2019-02-04T06:07:29.965Z,1030.98
2019-02-04T06:08:30.162Z,1030.97
2019-02-04T06:09:29.979Z,1031
2019-02-04T06:10:29.814Z,1031
2019-02-04T06:11:29.979Z,1031.01
2019-02-04T06:12:29.748Z,1031.03
2019-02-04T06:13:30.403Z,1030.98
2019-02-04T06:14:29.766Z,1031
2019-02-04T06:15:29.748Z,1030.96
2019-02-04T06:16:30.108Z,1030.95
2019-02-04T06:17:30.019Z,1030.96
2019-02-04T06:18:30.254Z,1030.95
2019-02-04T06:19:29.892Z,1030.93
2019-02-04T06:20:30.080Z,1030.89
2019-02-04T06:21:30.456Z,1030.91
2019-02-04T06:22:29.963Z,1030.88
2019-02-04T06:23:29.822Z,1030.84
2019-02-04T06:24:29.906Z,1030.82
2019-02-04T06:25:29.767Z,1030.82
2019-02-04T06:26:29.710Z,1030.81
2019-02-04T06:27:30.216Z,1030.8
2019-02-04T06:28:30.123Z,1030.76
2019-02-04T06:29:30.715Z,1030.77
2019-02-04T06:30:29.698Z,1030.74
2019-02-04T06:31:29.685Z,1030.74
2019-02-04T06:32:29.746Z,1030.73
2019-02-04T06:33:29.731Z,1030.78
2019-02-04T06:34:29.719Z,1030.76
2019-02-04T06:35:29.971Z,1030.75
2019-02-04T06:36:29.986Z,1030.76
2019-02-04T06:37:29.910Z,1030.78
2019-02-04T06:38:29.777Z,1030.81
2019-02-04T06:39:29.718Z,1030.81
2019-02-04T06:40:29.697Z,1030.79
2019-02-04T06:41:29.776Z,1030.79
2019-02-04T06:42:29.710Z,1030.77
2019-02-04T06:43:29.661Z,1030.77
2019-02-04T06:44:29.890Z,1030.81
2019-02-04T06:45:29.695Z,1030.82
2019-02-04T06:46:29.673Z,1030.82
2019-02-04T06:47:30.057Z,1030.88
2019-02-04T06:48:29.747Z,1030.84
2019-02-04T06:49:29.949Z,1030.84
2019-02-04T06:50:29.639Z,1030.84
2019-02-04T06:51:29.646Z,1030.86
2019-02-04T06:52:30.262Z,1030.93
2019-02-04T06:53:30.085Z,1030.92
2019-02-04T06:54:29.778Z,1030.96
2019-02-04T06:55:29.734Z,1030.94
2019-02-04T06:56:30.107Z,1030.97
2019-02-04T06:57:29.664Z,1030.97
2019-02-04T06:58:30.013Z,1031.01
2019-02-04T06:59:31.478Z,1030.99
2019-02-04T07:00:30.573Z,1031.01
2019-02-04T07:01:29.810Z,1031.04
2019-02-04T07:02:29.703Z,1031.08
2019-02-04T07:03:29.647Z,1031.09
2019-02-04T07:04:29.638Z,1031.1
2019-02-04T07:05:29.653Z,1031.15
2019-02-04T07:06:31.472Z,1031.14
2019-02-04T07:07:29.973Z,1031.13
2019-02-04T07:08:31.805Z,1031.14
2019-02-04T07:09:31.460Z,1031.11
2019-02-04T07:10:29.823Z,1031.13
2019-02-04T07:11:29.867Z,1031.11
2019-02-04T07:12:30.040Z,1031.12
2019-02-04T07:13:29.680Z,1031.12
2019-02-04T07:14:29.818Z,1031.16
2019-02-04T07:15:29.955Z,1031.17
2019-02-04T07:16:29.758Z,1031.19
2019-02-04T07:18:29.697Z,1031.21
2019-02-04T07:19:30.146Z,1031.24
2019-02-04T07:20:30.177Z,1031.26
2019-02-04T07:21:30.057Z,1031.3
2019-02-04T07:22:30.022Z,1031.33
2019-02-04T07:23:30.453Z,1031.25
2019-02-04T07:24:29.691Z,1031.34
2019-02-04T07:25:29.711Z,1031.37
2019-02-04T07:26:29.674Z,1031.38
2019-02-04T07:27:30.214Z,1031.39
2019-02-04T07:28:30.063Z,1031.45
2019-02-04T07:29:29.602Z,1031.51
2019-02-04T07:30:29.697Z,1031.52
2019-02-04T07:31:29.686Z,1031.58
2019-02-04T07:32:29.588Z,1031.61
2019-02-04T07:33:30.051Z,1031.62
2019-02-04T07:34:29.659Z,1031.6
2019-02-04T07:35:29.592Z,1031.62
2019-02-04T07:36:31.411Z,1031.63
2019-02-04T07:37:31.428Z,1031.62
2019-02-04T07:38:30.167Z,1031.63
2019-02-04T07:39:29.714Z,1031.61
2019-02-04T07:40:30.821Z,1031.6
2019-02-04T07:41:29.550Z,1031.61
2019-02-04T07:42:29.604Z,1031.67
2019-02-04T07:43:29.781Z,1031.62
2019-02-04T07:44:30.010Z,1031.65
2019-02-04T07:45:30.026Z,1031.69
2019-02-04T07:46:30.323Z,1031.7
2019-02-04T07:47:30.051Z,1031.67
2019-02-04T07:48:29.625Z,1031.65
2019-02-04T07:49:35.645Z,1031.68
2019-02-04T07:50:29.580Z,1031.7
2019-02-04T07:51:29.579Z,1031.67
2019-02-04T07:52:29.648Z,1031.71
2019-02-04T07:53:29.695Z,1031.68
2019-02-04T07:54:29.970Z,1031.65
2019-02-04T07:55:29.752Z,1031.71
2019-02-04T07:56:29.578Z,1031.66
2019-02-04T07:57:29.683Z,1031.71
2019-02-04T07:58:29.602Z,1031.76
2019-02-04T07:59:29.912Z,1031.79
2019-02-04T08:00:30.116Z,1031.76
2019-02-04T08:01:29.942Z,1031.8
2019-02-04T08:02:31.060Z,1031.8
2019-02-04T08:03:29.846Z,1031.79
2019-02-04T08:04:29.709Z,1031.81
2019-02-04T08:05:29.740Z,1031.83
2019-02-04T08:06:30.094Z,1031.78
2019-02-04T08:07:29.610Z,1031.78
2019-02-04T08:08:32.130Z,1031.79
2019-02-04T08:09:30.352Z,1031.8
2019-02-04T08:10:29.575Z,1031.81
2019-02-04T08:11:29.815Z,1031.81
2019-02-04T08:12:29.564Z,1031.83
2019-02-04T08:13:29.602Z,1031.82
2019-02-04T08:14:30.220Z,1031.8
2019-02-04T08:15:29.604Z,1031.81
2019-02-04T08:16:29.604Z,1031.81
2019-02-04T08:17:29.927Z,1031.82
2019-02-04T08:18:29.613Z,1031.8
2019-02-04T08:19:29.528Z,1031.79
2019-02-04T08:20:29.539Z,1031.81
2019-02-04T08:21:29.542Z,1031.81
2019-02-04T08:22:29.555Z,1031.75
2019-02-04T08:23:29.639Z,1031.75
2019-02-04T08:24:29.580Z,1031.75
2019-02-04T08:25:29.905Z,1031.75
2019-02-04T08:26:29.511Z,1031.74
2019-02-04T08:27:30.422Z,1031.75
2019-02-04T08:28:29.690Z,1031.73
2019-02-04T08:29:29.528Z,1031.71
2019-02-04T08:30:29.640Z,1031.69
2019-02-04T08:31:29.636Z,1031.71
2019-02-04T08:32:29.825Z,1031.63
2019-02-04T08:33:30.019Z,1031.61
2019-02-04T08:34:29.602Z,1031.61
2019-02-04T08:35:29.600Z,1031.57
2019-02-04T08:36:30.017Z,1031.54
2019-02-04T08:37:29.568Z,1031.55
2019-02-04T08:38:30.260Z,1031.57
2019-02-04T08:39:29.673Z,1031.61
2019-02-04T08:40:29.659Z,1031.57
2019-02-04T08:41:29.807Z,1031.56
2019-02-04T08:42:30.725Z,1031.61
2019-02-04T08:43:29.633Z,1031.6
2019-02-04T08:44:29.706Z,1031.6
2019-02-04T08:45:29.631Z,1031.62
2019-02-04T08:47:29.876Z,1031.64
2019-02-04T08:48:33.017Z,1031.66
2019-02-04T08:49:29.447Z,1031.61
2019-02-04T08:50:29.785Z,1031.6
2019-02-04T08:51:29.710Z,1031.66
2019-02-04T08:52:29.864Z,1031.61
2019-02-04T08:53:30.686Z,1031.66
2019-02-04T08:54:30.021Z,1031.66
2019-02-04T08:55:29.500Z,1031.62
2019-02-04T08:56:29.566Z,1031.65
2019-02-04T08:57:31.593Z,1031.64
2019-02-04T08:58:29.594Z,1031.61
2019-02-04T08:59:29.459Z,1031.6
2019-02-04T09:00:33.539Z,1031.58
2019-02-04T09:01:29.630Z,1031.58
2019-02-04T09:02:29.486Z,1031.57
2019-02-04T09:03:29.670Z,1031.58
2019-02-04T09:04:29.556Z,1031.57
2019-02-04T09:05:29.770Z,1031.56
2019-02-04T09:06:29.587Z,1031.62
2019-02-04T09:07:29.762Z,1031.6
2019-02-04T09:08:29.546Z,1031.58
2019-02-04T09:09:30.294Z,1031.58
2019-02-04T09:10:29.653Z,1031.56
2019-02-04T09:11:30.094Z,1031.57
2019-02-04T09:12:29.642Z,1031.49
2019-02-04T09:13:29.531Z,1031.5
2019-02-04T09:14:30.652Z,1031.46
2019-02-04T09:15:29.449Z,1031.48
2019-02-04T09:16:29.609Z,1031.44
2019-02-04T09:17:29.444Z,1031.45
2019-02-04T09:18:30.001Z,1031.43
2019-02-04T09:19:29.450Z,1031.42
2019-02-04T09:20:29.601Z,1031.41
2019-02-04T09:21:29.613Z,1031.45
2019-02-04T09:22:29.591Z,1031.47
2019-02-04T09:23:31.225Z,1031.46
2019-02-04T09:24:29.427Z,1031.45
2019-02-04T09:25:29.430Z,1031.45
2019-02-04T09:26:29.885Z,1031.42
2019-02-04T09:27:29.431Z,1031.39
2019-02-04T09:28:30.205Z,1031.32
2019-02-04T09:29:29.418Z,1031.33
2019-02-04T09:30:31.261Z,1031.32
2019-02-04T09:31:29.397Z,1031.3
2019-02-04T09:32:29.610Z,1031.26
2019-02-04T09:33:29.843Z,1031.24
2019-02-04T09:34:30.128Z,1031.23
2019-02-04T09:35:30.175Z,1031.3
2019-02-04T09:36:29.565Z,1031.25
2019-02-04T09:37:31.239Z,1031.29
2019-02-04T09:38:29.560Z,1031.3
2019-02-04T09:39:29.388Z,1031.32
2019-02-04T09:40:29.803Z,1031.33
2019-02-04T09:41:29.714Z,1031.36
2019-02-04T09:42:29.455Z,1031.37
2019-02-04T09:43:29.431Z,1031.37
2019-02-04T09:44:29.412Z,1031.43
2019-02-04T09:45:31.311Z,1031.4
2019-02-04T09:46:29.647Z,1031.42
2019-02-04T09:47:29.730Z,1031.44
2019-02-04T09:48:29.845Z,1031.51
2019-02-04T09:49:29.841Z,1031.51
2019-02-04T09:50:32.770Z,1031.55
2019-02-04T09:51:29.558Z,1031.61
2019-02-04T09:52:29.392Z,1031.62
2019-02-04T09:53:29.486Z,1031.6
2019-02-04T09:54:29.355Z,1031.6
2019-02-04T09:55:29.924Z,1031.59
2019-02-04T09:56:29.344Z,1031.59
2019-02-04T09:57:29.403Z,1031.58
2019-02-04T09:58:29.423Z,1031.58
2019-02-04T09:59:29.391Z,1031.57
2019-02-04T10:00:29.391Z,1031.55
2019-02-04T10:01:29.473Z,1031.54
2019-02-04T10:02:29.371Z,1031.54
2019-02-04T10:03:29.389Z,1031.51
2019-02-04T10:04:29.500Z,1031.51
2019-02-04T10:05:29.658Z,1031.49
2019-02-04T10:06:29.175Z,1031.49
2019-02-04T10:07:29.084Z,1031.5
2019-02-04T10:08:29.098Z,1031.47
2019-02-04T10:09:29.301Z,1031.47
2019-02-04T10:10:29.080Z,1031.5
2019-02-04T10:11:29.410Z,1031.49
2019-02-04T10:12:30.847Z,1031.49
2019-02-04T10:13:29.134Z,1031.44
2019-02-04T10:14:29.417Z,1031.46
2019-02-04T10:15:29.166Z,1031.46
2019-02-04T10:16:29.555Z,1031.45
2019-02-04T10:17:30.954Z,1031.42
2019-02-04T10:18:29.440Z,1031.45
2019-02-04T10:19:29.671Z,1031.46
2019-02-04T10:20:34.829Z,1031.44
2019-02-04T10:21:29.129Z,1031.44
2019-02-04T10:22:29.389Z,1031.4
2019-02-04T10:23:29.101Z,1031.42
2019-02-04T10:24:29.232Z,1031.46
2019-02-04T10:25:29.623Z,1031.41
2019-02-04T10:26:29.335Z,1031.41
2019-02-04T10:27:29.228Z,1031.38
2019-02-04T10:28:29.859Z,1031.34
2019-02-04T10:29:29.595Z,1031.33
2019-02-04T10:30:29.252Z,1031.36
2019-02-04T10:31:29.198Z,1031.31
2019-02-04T10:32:29.183Z,1031.3
2019-02-04T10:33:29.283Z,1031.28
2019-02-04T10:34:29.388Z,1031.28
2019-02-04T10:35:29.597Z,1031.28
2019-02-04T10:36:30.399Z,1031.26
2019-02-04T10:37:29.421Z,1031.26
2019-02-04T10:38:29.219Z,1031.22
2019-02-04T10:39:29.072Z,1031.21
2019-02-04T10:40:29.415Z,1031.21
2019-02-04T10:41:29.146Z,1031.18
2019-02-04T10:42:29.111Z,1031.15
2019-02-04T10:43:29.199Z,1031.14
2019-02-04T10:44:29.353Z,1031.12
2019-02-04T10:45:29.288Z,1031.15
2019-02-04T10:46:29.605Z,1031.09
2019-02-04T10:47:29.289Z,1031.02
2019-02-04T10:48:29.344Z,1031.03
2019-02-04T10:49:29.088Z,1030.98
2019-02-04T10:50:29.161Z,1030.92
2019-02-04T10:51:29.208Z,1030.87
2019-02-04T10:52:29.258Z,1030.84
2019-02-04T10:53:29.468Z,1030.85
2019-02-04T10:54:29.187Z,1030.85
2019-02-04T10:55:29.410Z,1030.8
2019-02-04T10:56:29.027Z,1030.75
2019-02-04T10:57:40.897Z,1030.74
2019-02-04T10:58:29.778Z,1030.74
2019-02-04T10:59:29.600Z,1030.62
2019-02-04T11:00:29.011Z,1030.61
2019-02-04T11:01:29.249Z,1030.59
2019-02-04T11:02:29.332Z,1030.56
2019-02-04T11:03:29.161Z,1030.56
2019-02-04T11:04:29.077Z,1030.59
2019-02-04T11:05:29.143Z,1030.56
2019-02-04T11:06:29.076Z,1030.52
2019-02-04T11:07:29.637Z,1030.54
2019-02-04T11:08:29.081Z,1030.52
2019-02-04T11:09:29.446Z,1030.52
2019-02-04T11:10:29.222Z,1030.56
2019-02-04T11:11:29.276Z,1030.5
2019-02-04T11:12:29.123Z,1030.51
2019-02-04T11:13:29.125Z,1030.49
2019-02-04T11:14:29.216Z,1030.5
2019-02-04T11:15:29.560Z,1030.45
2019-02-04T11:16:29.109Z,1030.52
2019-02-04T11:17:29.020Z,1030.49
2019-02-04T11:18:29.034Z,1030.46
2019-02-04T11:19:30.006Z,1030.45
2019-02-04T11:20:30.897Z,1030.38
2019-02-04T11:21:29.067Z,1030.44
2019-02-04T11:22:30.148Z,1030.44
2019-02-04T11:23:29.860Z,1030.4
2019-02-04T11:24:29.159Z,1030.41
2019-02-04T11:25:29.064Z,1030.34
2019-02-04T11:26:28.977Z,1030.35
2019-02-04T11:27:29.098Z,1030.32
2019-02-04T11:28:28.996Z,1030.35
2019-02-04T11:29:29.042Z,1030.32
2019-02-04T11:30:29.195Z,1030.27
2019-02-04T11:31:29.090Z,1030.27
2019-02-04T11:32:29.430Z,1030.26
2019-02-04T11:33:29.526Z,1030.22
2019-02-04T11:34:29.759Z,1030.17
2019-02-04T11:35:29.333Z,1030.2
2019-02-04T11:36:29.310Z,1030.18
2019-02-04T11:37:29.464Z,1030.14
2019-02-04T11:38:30.852Z,1030.11
2019-02-04T11:39:29.221Z,1030.09
2019-02-04T11:40:29.327Z,1030.09
2019-02-04T11:41:30.893Z,1030.09
2019-02-04T11:42:29.174Z,1030.07
2019-02-04T11:43:29.198Z,1030.04
2019-02-04T11:44:29.256Z,1030.02
2019-02-04T11:45:29.133Z,1030.05
2019-02-04T11:46:29.339Z,1029.97
2019-02-04T11:47:30.705Z,1029.98
2019-02-04T11:48:29.978Z,1029.97
2019-02-04T11:49:29.328Z,1029.98
2019-02-04T11:50:29.644Z,1029.97
2019-02-04T11:51:28.934Z,1029.97
2019-02-04T11:52:29.103Z,1029.94
2019-02-04T11:53:33.445Z,1029.93
2019-02-04T11:54:29.151Z,1029.91
2019-02-04T11:55:29.580Z,1029.87
2019-02-04T11:56:28.907Z,1029.91
2019-02-04T11:57:28.963Z,1029.9
2019-02-04T11:58:29.397Z,1029.9
2019-02-04T11:59:29.033Z,1029.89
2019-02-04T12:00:29.017Z,1029.89
2019-02-04T12:01:28.919Z,1029.86
2019-02-04T12:02:35.006Z,1029.87
2019-02-04T12:03:29.426Z,1029.83
2019-02-04T12:04:28.959Z,1029.79
2019-02-04T12:05:29.647Z,1029.79
2019-02-04T12:06:29.144Z,1029.78
2019-02-04T12:07:29.067Z,1029.75
2019-02-04T12:08:29.281Z,1029.78
2019-02-04T12:09:29.033Z,1029.74
2019-02-04T12:10:31.071Z,1029.73